createdAt,value
2023-04-21T00:00:10.337Z,15.02
2023-04-21T00:05:02.295Z,18.63
2023-04-21T00:09:54.070Z,20.88
2023-04-21T00:14:45.717Z,14.40
2023-04-21T00:19:37.316Z,15.50
2023-04-21T00:24:29.030Z,12.02
2023-04-21T00:29:20.760Z,12.30
2023-04-21T00:34:12.465Z,11.95
2023-04-21T00:39:04.110Z,14.82
2023-04-21T00:44:07.281Z,12.85
2023-04-21T00:48:59.144Z,19.60
2023-04-21T00:53:51.654Z,14.02
2023-04-21T00:58:45.682Z,16.92
2023-04-21T01:03:37.603Z,12.65
2023-04-21T01:08:29.352Z,13.40
2023-04-21T01:13:23.835Z,11.40
2023-04-21T01:18:17.106Z,11.60
2023-04-21T01:23:08.691Z,12.52
2023-04-21T01:28:00.327Z,15.55
2023-04-21T01:32:52.247Z,13.48
2023-04-21T01:37:43.892Z,13.65
2023-04-21T01:42:39.435Z,9.85
2023-04-21T01:47:31.041Z,13.02
2023-04-21T01:52:22.698Z,10.93
2023-04-21T01:57:14.621Z,17.08
2023-04-21T02:02:06.797Z,12.00
2023-04-21T02:06:58.473Z,14.43
2023-04-21T02:11:50.200Z,10.85
2023-04-21T02:16:41.879Z,12.63
2023-04-21T02:21:33.742Z,13.43
2023-04-21T02:26:25.699Z,11.70
2023-04-21T02:31:18.937Z,8.70
2023-04-21T02:36:10.729Z,11.65
2023-04-21T02:41:02.337Z,11.25
2023-04-21T02:45:53.910Z,10.65
2023-04-21T02:50:45.496Z,12.20
2023-04-21T02:55:37.142Z,10.95
2023-04-21T03:00:28.734Z,10.63
2023-04-21T03:05:21.180Z,11.90
2023-04-21T03:10:12.834Z,11.82
2023-04-21T03:15:04.932Z,9.18
2023-04-21T03:19:56.562Z,9.20
2023-04-21T03:24:48.099Z,11.35
2023-04-21T03:29:39.725Z,8.32
2023-04-21T03:34:31.303Z,10.10
2023-04-21T03:39:23.114Z,11.80
2023-04-21T03:44:15.087Z,11.20
2023-04-21T03:49:06.721Z,10.48
2023-04-21T03:53:59.259Z,11.55
2023-04-21T03:58:50.867Z,10.23
2023-04-21T04:03:42.660Z,9.40
2023-04-21T04:08:34.447Z,11.45
2023-04-21T04:13:26.685Z,13.10
2023-04-21T04:18:18.269Z,9.55
2023-04-21T04:23:09.907Z,7.85
2023-04-21T04:28:01.491Z,11.60
2023-04-21T04:32:53.081Z,7.45
2023-04-21T04:37:45.599Z,8.95
2023-04-21T04:42:37.354Z,11.35
2023-04-21T04:47:29.670Z,9.82
2023-04-21T04:52:21.444Z,8.50
2023-04-21T04:57:13.188Z,6.90
2023-04-21T05:02:04.853Z,6.88
2023-04-21T05:06:56.536Z,5.63
2023-04-21T05:11:48.161Z,5.80
2023-04-21T05:16:39.992Z,7.60
2023-04-21T05:21:31.752Z,6.32
2023-04-21T05:26:24.325Z,9.27
2023-04-21T05:31:15.990Z,5.40
2023-04-21T05:36:09.437Z,8.45
2023-04-21T05:41:00.996Z,6.43
2023-04-21T05:45:52.934Z,5.70
2023-04-21T05:50:44.808Z,6.07
2023-04-21T05:55:37.351Z,6.25
2023-04-21T06:00:28.987Z,6.63
2023-04-21T06:05:20.811Z,5.18
2023-04-21T06:10:14.074Z,9.13
2023-04-21T06:15:06.382Z,8.00
2023-04-21T06:19:58.171Z,8.45
2023-04-21T06:24:49.844Z,10.20
2023-04-21T06:29:42.866Z,9.90
2023-04-21T06:34:34.590Z,13.98
2023-04-21T06:39:26.766Z,11.10
2023-04-21T06:44:19.228Z,14.18
2023-04-21T06:49:11.164Z,10.70
2023-04-21T06:54:03.116Z,13.90
2023-04-21T06:58:55.047Z,19.00
2023-04-21T07:03:46.917Z,21.10
2023-04-21T07:08:39.162Z,23.83
2023-04-21T07:13:30.738Z,23.48
2023-04-21T07:18:22.307Z,24.63
2023-04-21T07:23:13.986Z,18.13
2023-04-21T07:28:05.878Z,21.35
2023-04-21T07:32:57.707Z,24.95
2023-04-21T07:37:49.561Z,21.00
2023-04-21T07:42:41.335Z,21.30
2023-04-21T07:47:33.412Z,21.00
2023-04-21T07:52:25.045Z,21.02
2023-04-21T07:57:16.807Z,21.45
2023-04-21T08:02:08.683Z,26.65
2023-04-21T08:07:00.558Z,25.95
2023-04-21T08:11:52.279Z,29.35
2023-04-21T08:16:44.133Z,24.88
2023-04-21T08:21:36.488Z,24.00
2023-04-21T08:26:30.186Z,20.33
2023-04-21T08:31:22.017Z,19.95
2023-04-21T08:36:26.112Z,21.88
2023-04-21T08:41:20.787Z,19.17
2023-04-21T08:46:12.631Z,20.38
2023-04-21T08:51:06.810Z,20.02
2023-04-21T08:56:09.955Z,19.20
2023-04-21T09:01:02.747Z,23.67
2023-04-21T09:06:05.722Z,22.77
2023-04-21T09:10:58.767Z,27.30
2023-04-21T09:15:54.417Z,23.02
2023-04-21T09:20:48.086Z,17.88
2023-04-21T09:25:41.380Z,22.30
2023-04-21T09:30:36.364Z,15.52
2023-04-21T09:35:29.237Z,16.60
2023-04-21T09:40:20.937Z,17.77
2023-04-21T09:50:12.689Z,18.92
2023-04-21T09:55:12.025Z,18.67
2023-04-21T10:00:13.807Z,16.50
2023-04-21T10:05:07.287Z,16.25
2023-04-21T10:10:01.043Z,13.55
2023-04-21T10:14:53.721Z,13.48
2023-04-21T10:19:51.169Z,11.00
2023-04-21T10:24:43.326Z,11.63
2023-04-21T10:34:30.427Z,12.70
2023-04-21T10:39:31.418Z,8.45
2023-04-21T10:44:23.105Z,9.70
2023-04-21T10:49:25.652Z,7.50
2023-04-21T10:54:17.418Z,9.20
2023-04-21T10:59:09.123Z,10.32
2023-04-21T11:04:01.419Z,10.50
2023-04-21T11:08:59.568Z,6.80
2023-04-21T11:13:53.044Z,6.90
2023-04-21T11:18:45.312Z,7.75
2023-04-21T11:23:41.360Z,7.05
2023-04-21T11:28:32.928Z,9.57
2023-04-21T11:33:24.753Z,6.53
2023-04-21T11:38:18.687Z,9.25
2023-04-21T11:43:10.352Z,10.50
2023-04-21T11:48:18.022Z,9.38
2023-04-21T11:53:09.747Z,10.53
2023-04-21T11:58:03.469Z,9.55
2023-04-21T12:02:57.009Z,12.63
2023-04-21T12:07:49.057Z,12.65
2023-04-21T12:12:42.241Z,13.23
2023-04-21T12:17:40.355Z,11.10
2023-04-21T12:27:23.572Z,8.88
2023-04-21T12:32:15.933Z,8.85
2023-04-21T12:37:07.860Z,7.38
2023-04-21T12:41:59.784Z,5.10
2023-04-21T12:46:52.340Z,8.98
2023-04-21T12:51:44.595Z,5.43
2023-04-21T12:56:36.632Z,5.85
2023-04-21T13:01:28.245Z,4.97
2023-04-21T13:06:20.139Z,4.70
2023-04-21T13:11:11.738Z,8.15
2023-04-21T13:16:03.658Z,4.25
2023-04-21T13:20:55.287Z,3.97
2023-04-21T13:25:47.270Z,6.60
2023-04-21T13:30:38.895Z,4.97
2023-04-21T13:35:30.641Z,5.22
2023-04-21T13:40:22.229Z,7.03
2023-04-21T13:45:13.915Z,6.32
2023-04-21T13:50:06.246Z,6.13
2023-04-21T13:54:57.791Z,9.50
2023-04-21T13:59:50.105Z,4.88
2023-04-21T14:04:42.221Z,4.95
2023-04-21T14:09:34.842Z,6.68
2023-04-21T14:14:37.876Z,6.88
2023-04-21T14:19:32.477Z,5.88
2023-04-21T14:24:26.920Z,3.17
2023-04-21T14:29:18.518Z,4.72
2023-04-21T14:34:10.052Z,3.40
2023-04-21T14:39:01.697Z,5.82
2023-04-21T14:43:56.221Z,4.35
2023-04-21T14:48:47.919Z,4.38
2023-04-21T14:53:40.744Z,4.82
2023-04-21T14:58:32.555Z,4.82
2023-04-21T15:03:24.298Z,4.68
2023-04-21T15:08:18.323Z,5.43
2023-04-21T15:13:11.661Z,5.88
2023-04-21T15:18:03.355Z,6.45
2023-04-21T15:22:55.050Z,5.72
2023-04-21T15:27:46.804Z,4.30
2023-04-21T15:32:38.545Z,5.72
2023-04-21T15:37:30.235Z,5.88
2023-04-21T15:42:21.881Z,6.45
2023-04-21T15:47:15.190Z,5.72
2023-04-21T15:52:07.188Z,8.45
2023-04-21T15:56:58.834Z,5.68
2023-04-21T16:01:50.503Z,5.80
2023-04-21T16:06:42.203Z,5.55
2023-04-21T16:11:34.505Z,5.18
2023-04-21T16:16:26.171Z,6.45
2023-04-21T16:21:18.010Z,7.65
2023-04-21T16:26:09.837Z,4.55
2023-04-21T16:31:01.595Z,5.20
2023-04-21T16:35:54.233Z,6.43
2023-04-21T16:40:47.153Z,6.15
2023-04-21T16:45:38.896Z,7.45
2023-04-21T16:50:30.873Z,24.50
2023-04-21T16:55:22.453Z,9.93
2023-04-21T17:00:14.772Z,9.30
2023-04-21T17:05:06.524Z,14.13
2023-04-21T17:09:58.368Z,6.38
2023-04-21T17:14:50.127Z,5.75
2023-04-21T17:19:41.713Z,6.43
2023-04-21T17:24:44.945Z,8.90
2023-04-21T17:29:43.891Z,7.85
2023-04-21T17:34:35.823Z,8.60
2023-04-21T17:39:27.676Z,7.57
2023-04-21T17:44:19.268Z,9.48
2023-04-21T17:49:10.936Z,10.15
2023-04-21T17:54:03.530Z,8.63
2023-04-21T17:58:55.194Z,9.60
2023-04-21T18:03:47.059Z,6.05
2023-04-21T18:08:38.811Z,7.60
2023-04-21T18:13:30.536Z,7.32
2023-04-21T18:18:22.094Z,8.77
2023-04-21T18:23:13.859Z,7.70
2023-04-21T18:28:05.537Z,9.70
2023-04-21T18:32:57.275Z,8.95
2023-04-21T18:37:48.911Z,9.25
2023-04-21T18:42:41.313Z,9.40
2023-04-21T18:47:32.908Z,14.77
2023-04-21T18:52:24.628Z,10.15
2023-04-21T18:57:16.257Z,10.43
2023-04-21T19:02:12.933Z,11.20
2023-04-21T19:07:08.333Z,9.75
2023-04-21T19:11:59.933Z,11.35
2023-04-21T19:16:53.011Z,12.13
2023-04-21T19:21:44.771Z,11.93
2023-04-21T19:26:36.416Z,13.60
2023-04-21T19:31:28.105Z,11.85
2023-04-21T19:36:19.796Z,11.45
2023-04-21T19:41:11.416Z,12.45
2023-04-21T19:46:03.085Z,13.40
2023-04-21T19:50:54.693Z,10.75
2023-04-21T19:55:46.833Z,15.27
2023-04-21T20:00:38.478Z,14.82
2023-04-21T20:05:30.093Z,14.60
2023-04-21T20:10:22.105Z,15.38
2023-04-21T20:15:13.788Z,18.33
2023-04-21T20:20:06.898Z,15.18
2023-04-21T20:24:58.491Z,18.50
2023-04-21T20:29:50.169Z,19.10
2023-04-21T20:34:42.214Z,19.08
2023-04-21T20:39:33.858Z,20.75
2023-04-21T20:44:31.370Z,17.00
2023-04-21T20:49:23.123Z,27.20
2023-04-21T20:54:14.728Z,23.13
2023-04-21T20:59:06.478Z,23.10
2023-04-21T21:04:01.209Z,24.48
2023-04-21T21:08:53.171Z,19.35
2023-04-21T21:13:45.509Z,23.15
2023-04-21T21:18:37.151Z,24.50
2023-04-21T21:23:29.036Z,26.02
2023-04-21T21:28:20.623Z,29.83
2023-04-21T21:33:12.279Z,23.85
2023-04-21T21:38:04.056Z,28.70
2023-04-21T21:42:55.635Z,26.88
2023-04-21T21:47:47.279Z,28.30
2023-04-21T21:52:38.921Z,27.95
2023-04-21T21:57:30.719Z,27.92
2023-04-21T22:02:22.439Z,26.15
2023-04-21T22:07:14.142Z,28.85
2023-04-21T22:12:07.048Z,29.70
2023-04-21T22:16:59.052Z,31.13
2023-04-21T22:21:50.652Z,29.50
2023-04-21T22:26:44.471Z,37.55
2023-04-21T22:31:37.198Z,31.30
2023-04-21T22:36:28.886Z,34.78
2023-04-21T22:41:21.190Z,30.40
2023-04-21T22:46:12.946Z,37.97
2023-04-21T22:51:06.338Z,35.78
2023-04-21T22:55:57.914Z,33.78
2023-04-21T23:00:49.758Z,34.38
2023-04-21T23:05:41.670Z,32.28
2023-04-21T23:10:33.672Z,34.28
2023-04-21T23:15:26.888Z,41.25
2023-04-21T23:20:18.632Z,41.08
2023-04-21T23:25:10.676Z,38.78
2023-04-21T23:30:02.764Z,38.38
2023-04-21T23:34:54.498Z,36.35
2023-04-21T23:39:46.068Z,36.72
2023-04-21T23:44:37.709Z,41.42
2023-04-21T23:49:29.421Z,35.38
2023-04-21T23:54:21.434Z,30.40
2023-04-21T23:59:13.128Z,33.65
